Kirkville, NY

8:47 AM EDT on April 27, 2015 (GMT -0400)
Minoa | | Change Station
CLOSE
Current Station
Personal Weather Station
Location: Minoa, NY
Elevation: 410 ft
Nearby Weather Stations

Elev 410 ft 43.08 °N, 76.02 °W | Updated 4 seconds ago

Overcast
Overcast
43.6 °F
Feels Like 44 °F
N
2.0
Wind Variable Wind from WNW
Gusts 6.0 mph

Today
High -- | Low -- °F
--% Chance of Precip.
Yesterday
High -- | Low -- °F
Precip. -- in
6:03 AM 8:00 PM
Waxing Gibbous, 64% visible
Pressure 29.77 in
Visibility 10.0 miles
Clouds Mostly Cloudy 1200 ft
Overcast 2100 ft
Windchill 44 °F
Dew Point 39 °F
Humidity 85%
Rainfall 0.00 in
Snow Depth Not available.
UV 1 out of 12
Pollen 8.30 out of 12
Air Quality Not available.
Flu Activity Widespread
SPECI KSYR 271240Z 31007KT 10SM BKN012 OVC021 07/03 A2977 RMK AO2 BKN V SCT T00670033

More Conditions Fewer Conditions

Pressure 29.77 in
Visibility 10.0 miles
Clouds Mostly Cloudy 1200 ft
Overcast 2100 ft
Windchill 44 °F
Dew Point 39 °F
Humidity 85%
Rainfall 0.00 in
Snow Depth Not available.
UV 1 out of 12
Pollen 8.30 out of 12
Air Quality Not available.
Flu Activity Widespread
SPECI KSYR 271240Z 31007KT 10SM BKN012 OVC021 07/03 A2977 RMK AO2 BKN V SCT T00670033

More Conditions Fewer Conditions

10-Day Weather Forecast

Almanac

Astronomy

Apr. 27, 2015 Rise Set
Actual Time
Civil Twilight
Nautical Twilight
Astronomical Twilight
Moon
Length of Visible Light
Length of Day
Tomorrow will be .
, % of the Moon is Illuminated

Today's Extremes

State Highs State Lows

Community

WunderPhotos

Upload Photos

1,817,292 photos uploaded!

WunderBlogs® & News

Nearby

Air Quality

  Air Quality AQ Index Pollutant
Not available.

Snow Depth

Station Depth Elevation

Earthquake Activity

City Distance Mag. Time & Date
Minimum magnitude displayed is 2.5.

Coastal Water Temperatures

Place Temperature

Stations

Nearby Weather Stations

Station Location Temp. Windchill Dew Point Humidity Wind Precip. Elev Updated Type